Flight Track Log - Related Links

Times and Time Zones

All times are in EDT time to prevent confusion due to time zone crossing. See the RPA3341 flight status page for this flight to view local times or setup timezone preferences in your user account.

Time Position Orientation Groundspeed Altitude Reporting Facility
EDT Latitude Longitude Course Direction KTS MPH feet Rate Location/Type
Sun 10:07:00 AM 39.9000 -75.5226 270° West  Level FlightAware
Sun 10:08:00 AM 39.9055 -75.6222 288° West  Level FlightAware
Sun 10:09:00 AM 39.9079 -75.7194 258° West  Level FlightAware
Sun 10:10:00 AM 39.9000 -75.8191 270° West  Level FlightAware
Sun 10:11:00 AM 39.9000 -75.9198 270° West  Level FlightAware
Sun 10:12:00 AM 39.9000 -76.0206 270° West  Level FlightAware
Sun 10:13:00 AM 39.9000 -76.1213 270° West  Level FlightAware
Sun 10:14:00 AM 39.9000 -76.2221 270° West  Level FlightAware
Sun 10:15:00 AM 39.9000 -76.3228 270° West  Level FlightAware
Sun 10:16:00 AM 39.9147 -76.4215 282° West  Level FlightAware
Sun 10:17:00 AM 39.9167 -76.5220 270° West  Level FlightAware
Sun 10:18:00 AM 39.9167 -76.6228 270° West  Level FlightAware
Sun 10:19:00 AM 39.9193 -76.7234 278° West  Level FlightAware
Sun 10:20:00 AM 39.9304 -76.8231 278° West  Level FlightAware
Sun 10:21:00 AM 39.9333 -76.9236 270° West  Level FlightAware
Sun 10:22:00 AM 39.9334 -77.0244 270° West  Level FlightAware
Sun 10:23:00 AM 39.9356 -77.1250 277° West  Level FlightAware
Sun 10:24:00 AM 39.9447 -77.2252 277° West  Level FlightAware
Sun 10:25:00 AM 39.9500 -77.3256 270° West  Level FlightAware
Sun 10:26:00 AM 39.9500 -77.4264 270° West  Level FlightAware
Sun 10:27:00 AM 39.9540 -77.5271 273° West  Level FlightAware
Sun 10:28:00 AM 39.9583 -77.6277 273° West  Level FlightAware
Sun 10:29:00 AM 39.9624 -77.7284 273° West  Level FlightAware
Sun 10:30:00 AM 39.9665 -77.8291 273° West  Level FlightAware
Sun 10:31:00 AM 39.9667 -77.9300 270° West  Level FlightAware
Sun 10:32:00 AM 39.9688 -78.0308 272° West  Level FlightAware
Sun 10:33:00 AM 39.9714 -78.1316 272° West  Level FlightAware
Sun 10:34:00 AM 39.9739 -78.2324 272° West  Level FlightAware
Sun 10:35:00 AM 39.9763 -78.3332 272° West  Level FlightAware
Sun 10:36:00 AM 39.9786 -78.4340 272° West  Level FlightAware
Sun 10:37:00 AM 39.9809 -78.5349 272° West  Level FlightAware
Sun 10:38:00 AM 39.9830 -78.6357 272° West  Level FlightAware
Sun 10:39:00 AM 39.9833 -78.7366 270° West  Level FlightAware
Sun 10:40:00 AM 39.9833 -78.8374 270° West  Level FlightAware
Sun 10:41:00 AM 39.9834 -78.9383 270° West  Level FlightAware
Sun 10:42:00 AM 39.9834 -79.0392 270° West  Level FlightAware
Sun 10:43:00 AM 39.9833 -79.1401 270° West  Level FlightAware
Sun 10:44:00 AM 39.9868 -79.2407 276° West  Level FlightAware
Sun 10:45:00 AM 39.9951 -79.3410 276° West  Level FlightAware
Sun 10:46:00 AM 40.0177 -79.4344 323° Northwest  Level FlightAware
Sun 10:47:00 AM 40.0672 -79.5109 306° West  Level FlightAware
Sun 10:48:00 AM 40.1126 -79.5927 306° West  Level FlightAware
Sun 10:49:00 AM 40.1638 -79.6675 308° West  Level FlightAware
Sun 10:50:00 AM 40.2123 -79.7463 309° West  Level FlightAware
Sun 10:51:00 AM 40.2613 -79.8247 309° West  Level FlightAware
Sun 10:52:00 AM 40.3067 -79.9066 306° West  Level FlightAware
Sun 10:53:00 AM 40.3517 -79.9891 306° West  Level FlightAware
Sun 10:54:00 AM 40.4005 -80.0676 303° West  Level FlightAware

Login

Don't have an account? Register now (free) for customized features, flight alerts, and more!